createdAt,value
2023-05-25T00:01:28.597Z,100.00
2023-05-25T00:03:56.854Z,100.00
2023-05-25T00:06:26.291Z,100.00
2023-05-25T00:08:55.783Z,100.00
2023-05-25T00:11:25.136Z,100.00
2023-05-25T00:13:53.989Z,100.00
2023-05-25T00:16:22.304Z,100.00
2023-05-25T00:18:50.607Z,100.00
2023-05-25T00:21:20.840Z,100.00
2023-05-25T00:23:49.101Z,100.00
2023-05-25T00:26:17.379Z,100.00
2023-05-25T00:28:48.498Z,100.00
2023-05-25T00:31:19.463Z,100.00
2023-05-25T00:33:47.838Z,100.00
2023-05-25T00:36:16.017Z,100.00
2023-05-25T00:38:44.975Z,100.00
2023-05-25T00:41:13.752Z,100.00
2023-05-25T00:43:41.953Z,100.00
2023-05-25T00:46:10.928Z,100.00
2023-05-25T00:48:39.925Z,100.00
2023-05-25T00:51:11.685Z,100.00
2023-05-25T00:53:39.878Z,100.00
2023-05-25T00:56:26.517Z,100.00
2023-05-25T00:58:57.262Z,100.00
2023-05-25T01:01:27.628Z,100.00
2023-05-25T01:03:58.463Z,100.00
2023-05-25T01:06:32.268Z,100.00
2023-05-25T01:09:05.757Z,100.00
2023-05-25T01:11:37.739Z,100.00
2023-05-25T01:14:06.893Z,100.00
2023-05-25T01:16:37.897Z,100.00
2023-05-25T01:19:07.280Z,100.00
2023-05-25T01:22:01.702Z,100.00
2023-05-25T01:24:47.217Z,100.00
2023-05-25T01:27:40.651Z,100.00
2023-05-25T01:30:14.109Z,100.00
2023-05-25T01:32:46.379Z,100.00
2023-05-25T01:35:15.340Z,100.00
2023-05-25T01:37:50.391Z,100.00
2023-05-25T01:40:18.667Z,100.00
2023-05-25T01:42:47.671Z,100.00
2023-05-25T01:45:17.028Z,100.00
2023-05-25T01:48:07.388Z,100.00
2023-05-25T01:50:55.282Z,100.00
2023-05-25T01:53:28.747Z,100.00
2023-05-25T01:56:08.967Z,100.00
2023-05-25T01:58:42.817Z,100.00
2023-05-25T02:01:16.220Z,100.00
2023-05-25T02:03:45.259Z,100.00
2023-05-25T02:06:13.628Z,100.00
2023-05-25T02:08:44.152Z,100.00
2023-05-25T02:11:17.030Z,100.00
2023-05-25T02:13:45.331Z,100.00
2023-05-25T02:16:14.451Z,100.00
2023-05-25T02:18:44.905Z,100.00
2023-05-25T02:21:13.238Z,100.00
2023-05-25T02:23:41.481Z,100.00
2023-05-25T02:26:09.763Z,100.00
2023-05-25T02:28:37.957Z,100.00
2023-05-25T02:31:06.998Z,100.00
2023-05-25T02:33:35.205Z,100.00
2023-05-25T02:36:05.463Z,100.00
2023-05-25T02:38:34.432Z,100.00
2023-05-25T02:41:02.636Z,100.00
2023-05-25T02:43:32.845Z,100.00
2023-05-25T02:46:01.195Z,100.00
2023-05-25T02:48:29.411Z,100.00
2023-05-25T02:50:58.446Z,100.00
2023-05-25T02:53:26.738Z,100.00
2023-05-25T02:55:54.987Z,100.00
2023-05-25T02:58:23.160Z,100.00
2023-05-25T03:00:52.077Z,100.00
2023-05-25T03:03:20.417Z,100.00
2023-05-25T03:05:49.376Z,100.00
2023-05-25T03:08:18.268Z,100.00
2023-05-25T03:10:47.357Z,100.00
2023-05-25T03:13:15.833Z,100.00
2023-05-25T03:15:45.019Z,100.00
2023-05-25T03:18:13.390Z,100.00
2023-05-25T03:20:41.810Z,100.00
2023-05-25T03:23:10.308Z,100.00
2023-05-25T03:25:38.539Z,100.00
2023-05-25T03:28:06.726Z,100.00
2023-05-25T03:30:35.043Z,100.00
2023-05-25T03:33:03.369Z,100.00
2023-05-25T03:35:31.981Z,100.00
2023-05-25T03:38:01.039Z,100.00
2023-05-25T03:40:30.042Z,100.00
2023-05-25T03:42:58.273Z,100.00
2023-05-25T03:45:26.479Z,100.00
2023-05-25T03:47:54.706Z,100.00
2023-05-25T03:50:22.980Z,100.00
2023-05-25T03:52:51.362Z,100.00
2023-05-25T03:55:19.852Z,100.00
2023-05-25T03:57:48.107Z,100.00
2023-05-25T04:00:17.139Z,100.00
2023-05-25T04:02:46.294Z,100.00
2023-05-25T04:05:14.638Z,100.00
2023-05-25T04:07:42.838Z,100.00
2023-05-25T04:10:12.253Z,100.00
2023-05-25T04:12:41.293Z,100.00
2023-05-25T04:15:09.853Z,100.00
2023-05-25T04:17:39.503Z,100.00
2023-05-25T04:20:09.685Z,100.00
2023-05-25T04:22:39.184Z,100.00
2023-05-25T04:25:08.573Z,100.00
2023-05-25T04:27:37.211Z,100.00
2023-05-25T04:30:06.016Z,100.00
2023-05-25T04:32:37.735Z,100.00
2023-05-25T04:35:06.657Z,100.00
2023-05-25T04:37:37.253Z,100.00
2023-05-25T04:40:10.043Z,100.00
2023-05-25T04:42:39.098Z,100.00
2023-05-25T04:45:12.018Z,100.00
2023-05-25T04:47:41.445Z,100.00
2023-05-25T04:50:11.972Z,100.00
2023-05-25T04:52:39.301Z,100.00
2023-05-25T04:55:07.906Z,100.00
2023-05-25T04:57:36.892Z,100.00
2023-05-25T05:00:07.237Z,100.00
2023-05-25T05:02:36.121Z,100.00
2023-05-25T05:05:04.581Z,100.00
2023-05-25T05:07:32.739Z,100.00
2023-05-25T05:10:01.921Z,86.82
2023-05-25T05:12:30.092Z,91.08
2023-05-25T05:14:59.016Z,93.58
2023-05-25T05:17:28.325Z,95.39
2023-05-25T05:19:56.717Z,97.50
2023-05-25T05:22:25.779Z,97.82
2023-05-25T05:24:53.857Z,97.73
2023-05-25T05:27:22.092Z,97.71
2023-05-25T05:29:50.248Z,97.61
2023-05-25T05:32:18.318Z,97.30
2023-05-25T05:34:46.531Z,96.54
2023-05-25T05:37:14.725Z,95.83
2023-05-25T05:39:42.991Z,95.10
2023-05-25T05:42:11.186Z,94.68
2023-05-25T05:44:39.398Z,94.70
2023-05-25T05:47:07.729Z,95.42
2023-05-25T05:49:38.117Z,93.49
2023-05-25T05:52:09.165Z,92.54
2023-05-25T05:54:37.384Z,91.73
2023-05-25T05:57:06.718Z,90.13
2023-05-25T05:59:35.259Z,90.26
2023-05-25T06:02:03.685Z,91.86
2023-05-25T06:04:31.915Z,88.83
2023-05-25T06:07:00.310Z,89.81
2023-05-25T06:09:28.560Z,89.56
2023-05-25T06:11:56.816Z,89.32
2023-05-25T06:14:27.488Z,89.55
2023-05-25T06:16:56.714Z,89.42
2023-05-25T06:19:24.944Z,89.89
2023-05-25T06:21:53.178Z,87.74
2023-05-25T06:24:21.414Z,87.84
2023-05-25T06:26:49.611Z,84.43
2023-05-25T06:29:17.868Z,83.78
2023-05-25T06:31:46.246Z,85.37
2023-05-25T06:34:14.514Z,82.50
2023-05-25T06:36:42.660Z,81.33
2023-05-25T06:39:10.833Z,81.89
2023-05-25T06:41:39.508Z,83.72
2023-05-25T06:44:08.159Z,85.72
2023-05-25T06:46:37.134Z,86.28
2023-05-25T06:49:06.182Z,87.60
2023-05-25T06:51:34.593Z,87.88
2023-05-25T06:54:03.552Z,90.00
2023-05-25T06:56:31.800Z,91.17
2023-05-25T06:59:00.052Z,90.39
2023-05-25T07:01:28.233Z,88.52
2023-05-25T07:03:57.232Z,83.10
2023-05-25T07:06:25.664Z,82.21
2023-05-25T07:08:55.480Z,83.60
2023-05-25T07:11:23.732Z,78.80
2023-05-25T07:13:51.887Z,73.59
2023-05-25T07:16:20.098Z,74.07
2023-05-25T07:18:48.412Z,71.45
2023-05-25T07:21:16.624Z,71.82
2023-05-25T07:23:44.768Z,69.77
2023-05-25T07:26:14.103Z,69.58
2023-05-25T07:28:42.277Z,67.54
2023-05-25T07:31:11.983Z,68.64
2023-05-25T07:33:40.258Z,66.14
2023-05-25T07:36:10.113Z,66.82
2023-05-25T07:38:39.137Z,64.10
2023-05-25T07:41:07.341Z,66.19
2023-05-25T07:43:35.719Z,63.36
2023-05-25T07:46:04.801Z,64.20
2023-05-25T07:48:33.852Z,64.14
2023-05-25T07:51:02.023Z,63.46
2023-05-25T07:53:31.066Z,60.73
2023-05-25T07:55:59.175Z,61.31
2023-05-25T07:58:27.292Z,61.47
2023-05-25T08:00:56.567Z,59.70
2023-05-25T08:03:39.807Z,60.54
2023-05-25T08:06:13.052Z,64.71
2023-05-25T08:08:42.195Z,62.11
2023-05-25T08:11:10.318Z,62.21
2023-05-25T08:13:39.197Z,61.37
2023-05-25T08:16:07.309Z,59.11
2023-05-25T08:18:36.100Z,61.19
2023-05-25T08:21:04.484Z,60.56
2023-05-25T08:23:33.417Z,59.72
2023-05-25T08:26:05.961Z,61.40
2023-05-25T08:28:39.960Z,62.12
2023-05-25T08:31:08.203Z,62.71
2023-05-25T08:33:38.172Z,60.05
2023-05-25T08:36:06.904Z,60.15
2023-05-25T08:38:35.102Z,61.54
2023-05-25T08:41:07.087Z,64.36
2023-05-25T08:43:35.400Z,61.45
2023-05-25T08:46:08.365Z,61.14
2023-05-25T08:48:42.302Z,64.44
2023-05-25T08:51:13.762Z,66.22
2023-05-25T08:53:44.103Z,61.85
2023-05-25T08:56:25.268Z,61.58
2023-05-25T08:59:20.849Z,61.83
2023-05-25T09:01:59.312Z,61.98
2023-05-25T09:04:30.022Z,58.99
2023-05-25T09:07:09.782Z,59.27
2023-05-25T09:09:41.080Z,58.05
2023-05-25T09:12:09.997Z,59.42
2023-05-25T09:14:45.818Z,61.83
2023-05-25T09:17:18.755Z,61.59
2023-05-25T09:19:47.696Z,59.70
2023-05-25T09:22:16.751Z,56.92
2023-05-25T09:24:46.161Z,56.17
2023-05-25T09:27:19.354Z,55.83
2023-05-25T09:29:52.277Z,57.40
2023-05-25T09:32:20.866Z,59.29
2023-05-25T09:34:49.295Z,56.88
2023-05-25T09:37:19.754Z,59.35
2023-05-25T09:39:48.487Z,60.22
2023-05-25T09:42:17.610Z,56.77
2023-05-25T09:44:45.918Z,56.17
2023-05-25T09:47:15.522Z,56.92
2023-05-25T09:49:44.714Z,54.08
2023-05-25T09:52:13.599Z,55.46
2023-05-25T09:54:46.271Z,54.31
2023-05-25T09:57:21.388Z,54.56
2023-05-25T09:59:49.569Z,53.15
2023-05-25T10:02:17.659Z,56.12
2023-05-25T10:04:46.619Z,54.91
2023-05-25T10:07:16.395Z,55.10
2023-05-25T10:09:47.254Z,53.69
2023-05-25T10:12:20.895Z,54.38
2023-05-25T10:14:51.487Z,52.72
2023-05-25T10:17:24.766Z,53.21
2023-05-25T10:19:58.523Z,56.96
2023-05-25T10:22:35.457Z,54.94
2023-05-25T10:25:20.449Z,54.92
2023-05-25T10:27:58.882Z,52.12
2023-05-25T10:30:28.085Z,52.11
2023-05-25T10:32:57.427Z,53.88
2023-05-25T10:35:25.651Z,54.81
2023-05-25T10:37:55.141Z,55.85
2023-05-25T10:40:24.356Z,54.23
2023-05-25T10:42:52.566Z,55.71
2023-05-25T10:45:21.496Z,54.03
2023-05-25T10:47:51.287Z,54.57
2023-05-25T10:50:23.257Z,51.74
2023-05-25T10:53:07.115Z,51.45
2023-05-25T10:55:54.642Z,52.39
2023-05-25T10:58:29.013Z,54.00
2023-05-25T11:01:13.021Z,53.22
2023-05-25T11:04:05.976Z,57.05
2023-05-25T11:06:40.767Z,59.76
2023-05-25T11:09:25.373Z,58.65
2023-05-25T11:11:55.708Z,56.51
2023-05-25T11:14:28.536Z,53.09
2023-05-25T11:17:14.942Z,51.80
2023-05-25T11:19:52.508Z,51.36
2023-05-25T11:22:32.311Z,52.22
2023-05-25T11:25:03.573Z,56.21
2023-05-25T11:27:32.807Z,56.01
2023-05-25T11:30:01.016Z,55.48
2023-05-25T11:32:29.525Z,55.54
2023-05-25T11:35:06.572Z,52.50
2023-05-25T11:37:34.805Z,55.54
2023-05-25T11:40:08.197Z,54.56
2023-05-25T11:42:36.343Z,52.58
2023-05-25T11:45:04.931Z,51.03
2023-05-25T11:47:35.695Z,52.89
2023-05-25T11:50:04.330Z,52.58
2023-05-25T11:52:32.586Z,50.63
2023-05-25T11:55:00.654Z,52.30
2023-05-25T11:57:28.788Z,56.13
2023-05-25T12:00:02.929Z,56.96
2023-05-25T12:02:39.101Z,57.25
2023-05-25T12:05:10.720Z,56.24
2023-05-25T12:07:47.083Z,54.46
2023-05-25T12:10:17.002Z,53.19
2023-05-25T12:12:51.921Z,51.10
2023-05-25T12:15:24.890Z,48.69
2023-05-25T12:17:54.137Z,48.94
2023-05-25T12:20:23.186Z,49.25
2023-05-25T12:22:51.453Z,49.90
2023-05-25T12:25:22.112Z,53.29
2023-05-25T12:28:13.130Z,54.49
2023-05-25T12:30:41.542Z,54.24
2023-05-25T12:33:14.896Z,55.69
2023-05-25T12:35:50.625Z,56.51
2023-05-25T12:38:22.122Z,54.32
2023-05-25T12:41:08.449Z,50.25
2023-05-25T12:43:43.316Z,49.44
2023-05-25T12:46:11.953Z,51.17
2023-05-25T12:48:40.136Z,52.65
2023-05-25T12:51:10.177Z,53.36
2023-05-25T12:53:51.847Z,54.19
2023-05-25T12:56:19.854Z,55.24
2023-05-25T12:58:47.903Z,54.57
2023-05-25T13:01:15.980Z,55.02
2023-05-25T13:03:44.057Z,53.07
2023-05-25T13:06:12.735Z,52.70
2023-05-25T13:08:40.757Z,51.95
2023-05-25T13:11:08.799Z,50.18
2023-05-25T13:13:37.634Z,49.69
2023-05-25T13:16:06.056Z,49.93
2023-05-25T13:18:34.131Z,48.44
2023-05-25T13:21:02.771Z,49.52
2023-05-25T13:23:31.272Z,49.56
2023-05-25T13:25:59.583Z,46.79
2023-05-25T13:28:27.714Z,48.14
2023-05-25T13:30:55.952Z,48.75
2023-05-25T13:33:24.036Z,47.50
2023-05-25T13:36:21.756Z,47.22
2023-05-25T13:38:49.873Z,47.57
2023-05-25T13:41:18.898Z,46.40
2023-05-25T13:43:47.732Z,46.00
2023-05-25T13:46:32.939Z,47.80
2023-05-25T13:49:03.952Z,49.73
2023-05-25T13:51:32.039Z,47.53
2023-05-25T13:54:00.173Z,48.84
2023-05-25T13:56:28.255Z,47.26
2023-05-25T13:58:56.387Z,47.55
2023-05-25T14:01:28.008Z,47.13
2023-05-25T14:03:56.423Z,49.48
2023-05-25T14:06:25.225Z,49.39
2023-05-25T14:08:53.375Z,47.06
2023-05-25T14:11:28.205Z,47.87
2023-05-25T14:13:56.847Z,49.55
2023-05-25T14:16:24.903Z,46.19
2023-05-25T14:18:53.139Z,49.28
2023-05-25T14:21:21.358Z,49.82
2023-05-25T14:23:49.396Z,49.77
2023-05-25T14:26:17.409Z,49.69
2023-05-25T14:28:45.588Z,49.28
2023-05-25T14:31:13.669Z,47.15
2023-05-25T14:33:43.069Z,46.49
2023-05-25T14:36:11.616Z,47.00
2023-05-25T14:38:39.562Z,47.06
2023-05-25T14:41:07.528Z,46.85
2023-05-25T14:43:35.488Z,45.94
2023-05-25T14:46:03.511Z,47.65
2023-05-25T14:48:31.470Z,47.60
2023-05-25T14:51:00.735Z,47.08
2023-05-25T14:53:28.758Z,48.15
2023-05-25T14:55:56.965Z,45.53
2023-05-25T14:58:24.945Z,45.01
2023-05-25T15:00:52.914Z,45.29
2023-05-25T15:03:21.329Z,44.42
2023-05-25T15:05:49.624Z,46.77
2023-05-25T15:08:17.677Z,47.13
2023-05-25T15:10:45.724Z,47.43
2023-05-25T15:13:13.863Z,48.49
2023-05-25T15:15:42.092Z,48.46
2023-05-25T15:18:10.182Z,47.08
2023-05-25T15:20:38.351Z,46.64
2023-05-25T15:23:06.399Z,48.07
2023-05-25T15:25:35.755Z,46.48
2023-05-25T15:28:04.333Z,47.29
2023-05-25T15:30:34.669Z,47.54
2023-05-25T15:33:03.165Z,47.41
2023-05-25T15:35:32.592Z,48.21
2023-05-25T15:38:01.757Z,49.13
2023-05-25T15:40:29.904Z,48.74
2023-05-25T15:42:57.820Z,49.66
2023-05-25T15:45:26.527Z,49.94
2023-05-25T15:47:54.602Z,50.51
2023-05-25T15:50:22.716Z,50.29
2023-05-25T15:52:51.011Z,48.60
2023-05-25T15:55:19.070Z,48.18
2023-05-25T15:57:47.020Z,48.78
2023-05-25T16:00:17.629Z,49.06
2023-05-25T16:02:45.694Z,50.67
2023-05-25T16:05:13.817Z,48.38
2023-05-25T16:07:43.295Z,48.63
2023-05-25T16:10:11.359Z,48.33
2023-05-25T16:12:39.335Z,49.01
2023-05-25T16:15:07.932Z,51.81
2023-05-25T16:17:35.946Z,48.78
2023-05-25T16:20:04.523Z,49.55
2023-05-25T16:22:32.595Z,48.82
2023-05-25T16:25:00.681Z,50.09
2023-05-25T16:27:28.702Z,51.97
2023-05-25T16:29:56.746Z,51.50
2023-05-25T16:32:24.703Z,50.90
2023-05-25T16:34:52.756Z,51.09
2023-05-25T16:37:20.787Z,50.59
2023-05-25T16:39:48.853Z,51.10
2023-05-25T16:42:16.925Z,52.09
2023-05-25T16:44:45.025Z,51.79
2023-05-25T16:47:13.037Z,51.04
2023-05-25T16:49:41.185Z,51.31
2023-05-25T16:52:10.210Z,52.17
2023-05-25T16:54:38.235Z,52.73
2023-05-25T16:57:07.135Z,53.47
2023-05-25T16:59:35.180Z,53.66
2023-05-25T17:02:03.214Z,53.68
2023-05-25T17:04:31.187Z,52.75
2023-05-25T17:06:59.141Z,54.06
2023-05-25T17:09:27.126Z,54.23
2023-05-25T17:11:59.577Z,54.53
2023-05-25T17:14:28.610Z,55.82
2023-05-25T17:16:56.730Z,56.00
2023-05-25T17:19:24.982Z,55.65
2023-05-25T17:21:52.964Z,56.96
2023-05-25T17:24:21.063Z,58.05
2023-05-25T17:26:50.381Z,57.95
2023-05-25T17:29:18.364Z,58.52
2023-05-25T17:31:48.369Z,59.70
2023-05-25T17:34:17.300Z,59.38
2023-05-25T17:36:45.246Z,59.19
2023-05-25T17:39:13.292Z,60.02
2023-05-25T17:41:41.840Z,59.82
2023-05-25T17:44:09.824Z,60.25
2023-05-25T17:46:38.023Z,61.27
2023-05-25T17:49:06.202Z,61.71
2023-05-25T17:51:34.222Z,61.68
2023-05-25T17:54:02.245Z,62.28
2023-05-25T17:56:30.637Z,61.89
2023-05-25T17:58:58.886Z,63.19
2023-05-25T18:01:46.163Z,63.59
2023-05-25T18:04:14.787Z,63.83
2023-05-25T18:06:43.050Z,64.49
2023-05-25T18:09:11.117Z,64.89
2023-05-25T18:11:39.261Z,65.52
2023-05-25T18:14:07.944Z,66.52
2023-05-25T18:16:41.662Z,65.73
2023-05-25T18:19:11.406Z,67.56
2023-05-25T18:21:40.431Z,67.94
2023-05-25T18:24:09.178Z,69.14
2023-05-25T18:26:37.398Z,69.67
2023-05-25T18:29:05.592Z,71.27
2023-05-25T18:31:33.997Z,70.34
2023-05-25T18:34:02.203Z,73.63
2023-05-25T18:36:30.322Z,74.01
2023-05-25T18:38:58.358Z,73.62
2023-05-25T18:41:27.129Z,75.51
2023-05-25T18:43:55.691Z,76.77
2023-05-25T18:46:25.144Z,77.64
2023-05-25T18:48:53.339Z,78.48
2023-05-25T18:51:23.385Z,79.30
2023-05-25T18:53:51.943Z,78.77
2023-05-25T18:56:20.067Z,80.47
2023-05-25T18:58:48.929Z,82.71
2023-05-25T19:01:18.935Z,80.87
2023-05-25T19:03:47.235Z,83.42
2023-05-25T19:06:15.343Z,84.76
2023-05-25T19:08:43.840Z,85.74
2023-05-25T19:11:11.851Z,85.84
2023-05-25T19:13:39.949Z,87.29
2023-05-25T19:16:08.877Z,86.61
2023-05-25T19:18:37.093Z,88.51
2023-05-25T19:21:05.958Z,85.10
2023-05-25T19:23:35.299Z,85.45
2023-05-25T19:26:03.533Z,86.75
2023-05-25T19:28:31.620Z,87.94
2023-05-25T19:30:59.752Z,87.99
2023-05-25T19:33:27.830Z,86.92
2023-05-25T19:35:56.406Z,87.86
2023-05-25T19:38:26.620Z,88.46
2023-05-25T19:40:57.088Z,90.37
2023-05-25T19:43:25.294Z,90.38
2023-05-25T19:45:53.314Z,90.89
2023-05-25T19:48:24.245Z,90.86
2023-05-25T19:50:53.445Z,90.56
2023-05-25T19:53:21.636Z,91.24
2023-05-25T19:55:49.699Z,90.95
2023-05-25T19:58:17.791Z,92.58
2023-05-25T20:00:46.067Z,91.46
2023-05-25T20:03:16.297Z,92.80
2023-05-25T20:05:44.982Z,93.62
2023-05-25T20:08:13.372Z,95.23
2023-05-25T20:10:43.881Z,94.66
2023-05-25T20:13:12.822Z,94.81
2023-05-25T20:15:41.494Z,95.40
2023-05-25T20:18:09.753Z,95.80
2023-05-25T20:20:38.141Z,94.37
2023-05-25T20:23:06.778Z,93.50
2023-05-25T20:25:34.983Z,92.96
2023-05-25T20:28:03.126Z,93.49
2023-05-25T20:30:31.152Z,92.23
2023-05-25T20:32:59.352Z,91.03
2023-05-25T20:35:26.804Z,90.80
2023-05-25T20:37:54.948Z,90.75
2023-05-25T20:40:22.950Z,89.06
2023-05-25T20:42:58.300Z,88.43
2023-05-25T20:45:26.299Z,88.62
2023-05-25T20:48:02.273Z,89.64
2023-05-25T20:50:31.240Z,89.61
2023-05-25T20:52:59.418Z,90.65
2023-05-25T20:55:26.906Z,92.13
2023-05-25T20:57:54.273Z,93.29
2023-05-25T21:00:25.636Z,93.04
2023-05-25T21:02:53.820Z,95.35
2023-05-25T21:05:21.957Z,94.61
2023-05-25T21:07:51.559Z,94.87
2023-05-25T21:10:20.520Z,95.42
2023-05-25T21:12:48.644Z,95.45
2023-05-25T21:15:16.950Z,95.20
2023-05-25T21:17:45.185Z,95.23
2023-05-25T21:20:13.538Z,95.00
2023-05-25T21:22:41.792Z,95.20
2023-05-25T21:25:11.360Z,96.36
2023-05-25T21:27:39.553Z,95.74
2023-05-25T21:30:08.485Z,95.74
2023-05-25T21:32:36.686Z,95.81
2023-05-25T21:35:05.028Z,94.82
2023-05-25T21:37:33.652Z,94.96
2023-05-25T21:40:01.835Z,94.53
2023-05-25T21:42:30.918Z,94.31
2023-05-25T21:44:59.130Z,94.23
2023-05-25T21:47:26.475Z,94.52
2023-05-25T21:49:56.756Z,95.16
2023-05-25T21:52:24.929Z,95.30
2023-05-25T21:54:53.202Z,94.99
2023-05-25T21:57:21.384Z,96.06
2023-05-25T21:59:49.588Z,95.90
2023-05-25T22:02:17.750Z,95.60
2023-05-25T22:04:45.954Z,97.05
2023-05-25T22:07:14.184Z,98.29
2023-05-25T22:09:42.394Z,98.51
2023-05-25T22:12:13.419Z,98.98
2023-05-25T22:14:41.679Z,99.09
2023-05-25T22:17:09.967Z,98.40
2023-05-25T22:19:41.804Z,99.72
2023-05-25T22:22:11.303Z,100.00
2023-05-25T22:24:39.486Z,100.00
2023-05-25T22:27:07.874Z,100.00
2023-05-25T22:29:36.073Z,100.00
2023-05-25T22:32:04.432Z,100.00
2023-05-25T22:34:33.378Z,100.00
2023-05-25T22:37:02.658Z,100.00
2023-05-25T22:39:30.890Z,100.00
2023-05-25T22:41:59.086Z,100.00
2023-05-25T22:44:27.266Z,100.00
2023-05-25T22:46:55.414Z,100.00
2023-05-25T22:49:23.662Z,100.00
2023-05-25T22:51:51.833Z,100.00
2023-05-25T22:54:20.154Z,100.00
2023-05-25T22:56:48.366Z,100.00
2023-05-25T22:59:16.506Z,100.00
2023-05-25T23:01:44.776Z,100.00
2023-05-25T23:04:13.023Z,100.00
2023-05-25T23:06:41.322Z,100.00
2023-05-25T23:09:11.405Z,100.00
2023-05-25T23:11:39.637Z,100.00
2023-05-25T23:14:08.085Z,100.00
2023-05-25T23:16:36.459Z,100.00
2023-05-25T23:19:04.952Z,100.00
2023-05-25T23:21:33.870Z,100.00
2023-05-25T23:24:02.107Z,100.00
2023-05-25T23:26:30.343Z,100.00
2023-05-25T23:28:58.567Z,100.00
2023-05-25T23:31:27.167Z,100.00
2023-05-25T23:33:55.406Z,100.00
2023-05-25T23:36:26.361Z,100.00
2023-05-25T23:38:54.705Z,100.00
2023-05-25T23:41:23.398Z,100.00
2023-05-25T23:43:51.758Z,100.00
2023-05-25T23:46:20.105Z,100.00
2023-05-25T23:48:48.361Z,100.00
2023-05-25T23:51:16.680Z,100.00
2023-05-25T23:53:44.869Z,100.00
2023-05-25T23:56:13.058Z,100.00
2023-05-25T23:58:42.862Z,100.00
